sensor_id;sensor_type;location;lat;lon;timestamp;temperature;humidity
14527;DHT22;7350;51.208;4.238;2023-03-31T00:01:25;18.10;99.90
14527;DHT22;7350;51.208;4.238;2023-03-31T00:03:52;18.00;99.90
14527;DHT22;7350;51.208;4.238;2023-03-31T00:06:28;18.10;99.90
14527;DHT22;7350;51.208;4.238;2023-03-31T00:08:55;18.00;99.90
14527;DHT22;7350;51.208;4.238;2023-03-31T00:11:27;18.00;99.90
14527;DHT22;7350;51.208;4.238;2023-03-31T00:13:54;18.10;99.90
14527;DHT22;7350;51.208;4.238;2023-03-31T00:16:22;18.10;99.90
14527;DHT22;7350;51.208;4.238;2023-03-31T00:18:49;18.00;99.90
14527;DHT22;7350;51.208;4.238;2023-03-31T00:21:17;18.00;99.90
14527;DHT22;7350;51.208;4.238;2023-03-31T00:23:52;18.10;99.90
14527;DHT22;7350;51.208;4.238;2023-03-31T00:26:19;18.10;99.90
14527;DHT22;7350;51.208;4.238;2023-03-31T00:28:47;18.10;99.90
14527;DHT22;7350;51.208;4.238;2023-03-31T00:31:15;18.00;99.90
14527;DHT22;7350;51.208;4.238;2023-03-31T00:33:42;18.00;99.90
14527;DHT22;7350;51.208;4.238;2023-03-31T00:36:09;18.00;99.90
14527;DHT22;7350;51.208;4.238;2023-03-31T00:38:36;18.00;99.90
14527;DHT22;7350;51.208;4.238;2023-03-31T00:41:04;18.00;99.90
14527;DHT22;7350;51.208;4.238;2023-03-31T00:43:33;18.00;99.90
14527;DHT22;7350;51.208;4.238;2023-03-31T00:46:06;18.00;99.90
14527;DHT22;7350;51.208;4.238;2023-03-31T00:48:38;18.00;99.90
14527;DHT22;7350;51.208;4.238;2023-03-31T00:51:07;18.00;99.90
14527;DHT22;7350;51.208;4.238;2023-03-31T00:53:35;18.00;99.90
14527;DHT22;7350;51.208;4.238;2023-03-31T00:56:08;18.00;99.90
14527;DHT22;7350;51.208;4.238;2023-03-31T00:58:37;18.00;99.90
14527;DHT22;7350;51.208;4.238;2023-03-31T01:01:11;18.00;99.90
14527;DHT22;7350;51.208;4.238;2023-03-31T01:03:40;18.00;99.90
14527;DHT22;7350;51.208;4.238;2023-03-31T01:06:12;18.00;99.90
14527;DHT22;7350;51.208;4.238;2023-03-31T01:08:42;18.00;99.90
14527;DHT22;7350;51.208;4.238;2023-03-31T01:11:14;18.00;99.90
14527;DHT22;7350;51.208;4.238;2023-03-31T01:13:42;18.00;99.90
14527;DHT22;7350;51.208;4.238;2023-03-31T01:16:10;18.00;99.90
14527;DHT22;7350;51.208;4.238;2023-03-31T01:18:37;17.90;99.90
14527;DHT22;7350;51.208;4.238;2023-03-31T01:27:45;17.90;99.90
14527;DHT22;7350;51.208;4.238;2023-03-31T01:30:42;17.90;99.90
14527;DHT22;7350;51.208;4.238;2023-03-31T01:33:42;17.90;99.90
14527;DHT22;7350;51.208;4.238;2023-03-31T01:36:40;17.90;99.90
14527;DHT22;7350;51.208;4.238;2023-03-31T01:42:23;17.90;99.90
14527;DHT22;7350;51.208;4.238;2023-03-31T01:45:00;17.80;99.90
14527;DHT22;7350;51.208;4.238;2023-03-31T01:47:31;17.80;99.90
14527;DHT22;7350;51.208;4.238;2023-03-31T01:50:08;17.80;99.90
14527;DHT22;7350;51.208;4.238;2023-03-31T01:52:41;17.80;99.90
14527;DHT22;7350;51.208;4.238;2023-03-31T01:55:14;17.80;99.90
14527;DHT22;7350;51.208;4.238;2023-03-31T01:57:47;17.80;99.90
14527;DHT22;7350;51.208;4.238;2023-03-31T02:00:19;17.80;99.90
14527;DHT22;7350;51.208;4.238;2023-03-31T02:02:55;17.90;99.90
14527;DHT22;7350;51.208;4.238;2023-03-31T02:05:25;17.80;99.90
14527;DHT22;7350;51.208;4.238;2023-03-31T02:07:55;17.80;99.90
14527;DHT22;7350;51.208;4.238;2023-03-31T02:10:26;17.80;99.90
14527;DHT22;7350;51.208;4.238;2023-03-31T02:12:57;17.80;99.90
14527;DHT22;7350;51.208;4.238;2023-03-31T02:15:28;17.80;99.90
14527;DHT22;7350;51.208;4.238;2023-03-31T02:17:58;17.80;99.90
14527;DHT22;7350;51.208;4.238;2023-03-31T02:20:28;17.80;99.90
14527;DHT22;7350;51.208;4.238;2023-03-31T02:22:57;17.90;99.90
14527;DHT22;7350;51.208;4.238;2023-03-31T02:25:31;17.90;99.90
14527;DHT22;7350;51.208;4.238;2023-03-31T02:28:05;17.90;99.90
14527;DHT22;7350;51.208;4.238;2023-03-31T02:30:37;17.90;99.90
14527;DHT22;7350;51.208;4.238;2023-03-31T02:33:06;17.90;99.90
14527;DHT22;7350;51.208;4.238;2023-03-31T02:35:33;17.90;99.90
14527;DHT22;7350;51.208;4.238;2023-03-31T02:38:01;17.80;99.90
14527;DHT22;7350;51.208;4.238;2023-03-31T02:40:31;17.90;99.90
14527;DHT22;7350;51.208;4.238;2023-03-31T02:42:58;17.80;99.90
14527;DHT22;7350;51.208;4.238;2023-03-31T02:45:50;17.80;99.90
14527;DHT22;7350;51.208;4.238;2023-03-31T02:48:19;17.90;99.90
14527;DHT22;7350;51.208;4.238;2023-03-31T02:54:01;17.80;99.90
14527;DHT22;7350;51.208;4.238;2023-03-31T02:56:42;17.80;99.90
14527;DHT22;7350;51.208;4.238;2023-03-31T02:59:23;17.80;99.90
14527;DHT22;7350;51.208;4.238;2023-03-31T03:02:07;17.80;99.90
14527;DHT22;7350;51.208;4.238;2023-03-31T03:04:52;17.80;99.90
14527;DHT22;7350;51.208;4.238;2023-03-31T03:07:27;17.80;99.90
14527;DHT22;7350;51.208;4.238;2023-03-31T03:10:01;17.80;99.90
14527;DHT22;7350;51.208;4.238;2023-03-31T03:12:32;17.80;99.90
14527;DHT22;7350;51.208;4.238;2023-03-31T03:15:05;17.70;99.90
14527;DHT22;7350;51.208;4.238;2023-03-31T03:17:37;17.80;99.90
14527;DHT22;7350;51.208;4.238;2023-03-31T03:20:06;17.80;99.90
14527;DHT22;7350;51.208;4.238;2023-03-31T03:22:34;17.80;99.90
14527;DHT22;7350;51.208;4.238;2023-03-31T03:25:02;17.80;99.90
14527;DHT22;7350;51.208;4.238;2023-03-31T03:27:29;17.80;99.90
14527;DHT22;7350;51.208;4.238;2023-03-31T03:29:56;17.80;99.90
14527;DHT22;7350;51.208;4.238;2023-03-31T03:32:23;17.80;99.90
14527;DHT22;7350;51.208;4.238;2023-03-31T03:34:51;17.70;99.90
14527;DHT22;7350;51.208;4.238;2023-03-31T03:37:18;17.70;99.90
14527;DHT22;7350;51.208;4.238;2023-03-31T03:39:45;17.70;99.90
14527;DHT22;7350;51.208;4.238;2023-03-31T03:42:12;17.70;99.90
14527;DHT22;7350;51.208;4.238;2023-03-31T03:44:39;17.80;99.90
14527;DHT22;7350;51.208;4.238;2023-03-31T03:47:06;17.70;99.90
14527;DHT22;7350;51.208;4.238;2023-03-31T03:49:33;17.60;99.90
14527;DHT22;7350;51.208;4.238;2023-03-31T03:52:02;17.60;99.90
14527;DHT22;7350;51.208;4.238;2023-03-31T03:54:29;17.50;99.90
14527;DHT22;7350;51.208;4.238;2023-03-31T03:56:56;17.60;99.90
14527;DHT22;7350;51.208;4.238;2023-03-31T03:59:23;17.70;99.90
14527;DHT22;7350;51.208;4.238;2023-03-31T04:01:50;17.80;99.90
14527;DHT22;7350;51.208;4.238;2023-03-31T04:04:18;17.80;99.90
14527;DHT22;7350;51.208;4.238;2023-03-31T04:06:45;17.90;99.90
14527;DHT22;7350;51.208;4.238;2023-03-31T04:09:13;18.00;99.90
14527;DHT22;7350;51.208;4.238;2023-03-31T04:11:40;18.10;99.90
14527;DHT22;7350;51.208;4.238;2023-03-31T04:14:07;18.10;99.90
14527;DHT22;7350;51.208;4.238;2023-03-31T04:16:34;18.20;99.90
14527;DHT22;7350;51.208;4.238;2023-03-31T04:19:03;18.20;99.90
14527;DHT22;7350;51.208;4.238;2023-03-31T04:21:31;18.20;99.90
14527;DHT22;7350;51.208;4.238;2023-03-31T04:24:00;18.10;99.90
14527;DHT22;7350;51.208;4.238;2023-03-31T04:26:31;18.20;99.90
14527;DHT22;7350;51.208;4.238;2023-03-31T04:29:08;18.20;99.90
14527;DHT22;7350;51.208;4.238;2023-03-31T04:31:37;18.10;99.90
14527;DHT22;7350;51.208;4.238;2023-03-31T04:34:07;18.10;99.90
14527;DHT22;7350;51.208;4.238;2023-03-31T04:36:37;18.10;99.90
14527;DHT22;7350;51.208;4.238;2023-03-31T04:39:07;18.10;99.90
14527;DHT22;7350;51.208;4.238;2023-03-31T04:41:37;18.20;99.90
14527;DHT22;7350;51.208;4.238;2023-03-31T04:44:04;18.20;99.90
14527;DHT22;7350;51.208;4.238;2023-03-31T04:46:32;18.30;99.90
14527;DHT22;7350;51.208;4.238;2023-03-31T04:48:59;18.30;99.90
14527;DHT22;7350;51.208;4.238;2023-03-31T04:51:27;18.40;99.90
14527;DHT22;7350;51.208;4.238;2023-03-31T04:53:55;18.40;99.90
14527;DHT22;7350;51.208;4.238;2023-03-31T04:56:22;18.50;99.90
14527;DHT22;7350;51.208;4.238;2023-03-31T04:58:50;18.60;99.90
14527;DHT22;7350;51.208;4.238;2023-03-31T05:01:17;18.80;99.90
14527;DHT22;7350;51.208;4.238;2023-03-31T05:03:45;19.00;99.90
14527;DHT22;7350;51.208;4.238;2023-03-31T05:06:13;19.10;99.90
14527;DHT22;7350;51.208;4.238;2023-03-31T05:08:40;19.20;99.90
14527;DHT22;7350;51.208;4.238;2023-03-31T05:11:08;19.40;99.90
14527;DHT22;7350;51.208;4.238;2023-03-31T05:13:35;19.50;99.90
14527;DHT22;7350;51.208;4.238;2023-03-31T05:16:08;19.50;99.90
14527;DHT22;7350;51.208;4.238;2023-03-31T05:18:35;19.50;99.90
14527;DHT22;7350;51.208;4.238;2023-03-31T05:21:10;19.60;99.90
14527;DHT22;7350;51.208;4.238;2023-03-31T05:23:37;19.60;99.90
14527;DHT22;7350;51.208;4.238;2023-03-31T05:26:04;19.60;99.90
14527;DHT22;7350;51.208;4.238;2023-03-31T05:28:32;19.60;99.90
14527;DHT22;7350;51.208;4.238;2023-03-31T05:31:00;19.60;99.90
14527;DHT22;7350;51.208;4.238;2023-03-31T05:33:28;19.60;99.90
14527;DHT22;7350;51.208;4.238;2023-03-31T05:35:56;19.60;99.90
14527;DHT22;7350;51.208;4.238;2023-03-31T05:38:25;19.50;99.90
14527;DHT22;7350;51.208;4.238;2023-03-31T05:40:54;19.50;99.90
14527;DHT22;7350;51.208;4.238;2023-03-31T05:43:23;19.50;99.90
14527;DHT22;7350;51.208;4.238;2023-03-31T05:45:50;19.40;99.90
14527;DHT22;7350;51.208;4.238;2023-03-31T05:48:17;19.40;99.90
14527;DHT22;7350;51.208;4.238;2023-03-31T05:50:46;19.30;99.90
14527;DHT22;7350;51.208;4.238;2023-03-31T05:53:13;19.30;99.90
14527;DHT22;7350;51.208;4.238;2023-03-31T05:55:40;19.30;99.90
14527;DHT22;7350;51.208;4.238;2023-03-31T05:58:07;19.20;99.90
14527;DHT22;7350;51.208;4.238;2023-03-31T06:00:34;19.20;99.90
14527;DHT22;7350;51.208;4.238;2023-03-31T06:03:02;19.20;99.90
14527;DHT22;7350;51.208;4.238;2023-03-31T06:05:32;19.20;99.90
14527;DHT22;7350;51.208;4.238;2023-03-31T06:08:01;19.20;99.90
14527;DHT22;7350;51.208;4.238;2023-03-31T06:10:28;19.20;99.90
14527;DHT22;7350;51.208;4.238;2023-03-31T06:12:57;19.10;99.90
14527;DHT22;7350;51.208;4.238;2023-03-31T06:15:24;19.10;99.90
14527;DHT22;7350;51.208;4.238;2023-03-31T06:17:51;19.10;99.90
14527;DHT22;7350;51.208;4.238;2023-03-31T06:20:18;19.10;99.90
14527;DHT22;7350;51.208;4.238;2023-03-31T06:22:45;19.00;99.90
14527;DHT22;7350;51.208;4.238;2023-03-31T06:25:14;19.00;99.90
14527;DHT22;7350;51.208;4.238;2023-03-31T06:27:41;19.00;99.90
14527;DHT22;7350;51.208;4.238;2023-03-31T06:30:09;19.00;99.90
14527;DHT22;7350;51.208;4.238;2023-03-31T06:32:36;18.90;99.90
14527;DHT22;7350;51.208;4.238;2023-03-31T06:35:03;18.90;99.90
14527;DHT22;7350;51.208;4.238;2023-03-31T06:37:30;18.90;99.90
14527;DHT22;7350;51.208;4.238;2023-03-31T06:39:57;18.80;99.90
14527;DHT22;7350;51.208;4.238;2023-03-31T06:42:25;18.80;99.90
14527;DHT22;7350;51.208;4.238;2023-03-31T06:44:52;18.80;99.90
14527;DHT22;7350;51.208;4.238;2023-03-31T06:47:20;18.80;99.90
14527;DHT22;7350;51.208;4.238;2023-03-31T06:49:47;18.70;99.90
14527;DHT22;7350;51.208;4.238;2023-03-31T06:52:14;18.70;99.90
14527;DHT22;7350;51.208;4.238;2023-03-31T06:54:41;18.70;99.90
14527;DHT22;7350;51.208;4.238;2023-03-31T06:57:10;18.70;99.90
14527;DHT22;7350;51.208;4.238;2023-03-31T06:59:38;18.70;99.90
14527;DHT22;7350;51.208;4.238;2023-03-31T07:02:05;18.70;99.90
14527;DHT22;7350;51.208;4.238;2023-03-31T07:04:32;18.60;99.90
14527;DHT22;7350;51.208;4.238;2023-03-31T07:07:00;18.60;99.90
14527;DHT22;7350;51.208;4.238;2023-03-31T07:09:27;18.60;99.90
14527;DHT22;7350;51.208;4.238;2023-03-31T07:11:54;18.60;99.90
14527;DHT22;7350;51.208;4.238;2023-03-31T07:14:21;18.60;99.90
14527;DHT22;7350;51.208;4.238;2023-03-31T07:16:52;18.60;99.90
14527;DHT22;7350;51.208;4.238;2023-03-31T07:19:19;18.60;99.90
14527;DHT22;7350;51.208;4.238;2023-03-31T07:21:47;18.60;99.90
14527;DHT22;7350;51.208;4.238;2023-03-31T07:24:14;18.60;99.90
14527;DHT22;7350;51.208;4.238;2023-03-31T07:26:41;18.60;99.90
14527;DHT22;7350;51.208;4.238;2023-03-31T07:29:08;18.50;99.90
14527;DHT22;7350;51.208;4.238;2023-03-31T07:31:35;18.50;99.90
14527;DHT22;7350;51.208;4.238;2023-03-31T07:34:04;18.50;99.90
14527;DHT22;7350;51.208;4.238;2023-03-31T07:36:31;18.50;99.90
14527;DHT22;7350;51.208;4.238;2023-03-31T07:38:58;18.50;99.90
14527;DHT22;7350;51.208;4.238;2023-03-31T07:41:25;18.50;99.90
14527;DHT22;7350;51.208;4.238;2023-03-31T07:43:52;18.50;99.90
14527;DHT22;7350;51.208;4.238;2023-03-31T07:46:22;18.50;99.90
14527;DHT22;7350;51.208;4.238;2023-03-31T07:48:49;18.50;99.90
14527;DHT22;7350;51.208;4.238;2023-03-31T07:51:20;18.50;99.90
14527;DHT22;7350;51.208;4.238;2023-03-31T07:53:47;18.50;99.90
14527;DHT22;7350;51.208;4.238;2023-03-31T07:56:17;18.50;99.90
14527;DHT22;7350;51.208;4.238;2023-03-31T07:58:45;18.50;99.90
14527;DHT22;7350;51.208;4.238;2023-03-31T08:01:13;18.50;99.90
14527;DHT22;7350;51.208;4.238;2023-03-31T08:03:41;18.50;99.90
14527;DHT22;7350;51.208;4.238;2023-03-31T08:06:08;18.50;99.90
14527;DHT22;7350;51.208;4.238;2023-03-31T08:08:37;18.50;99.90
14527;DHT22;7350;51.208;4.238;2023-03-31T08:11:07;18.50;99.90
14527;DHT22;7350;51.208;4.238;2023-03-31T08:13:34;18.40;99.90
14527;DHT22;7350;51.208;4.238;2023-03-31T08:16:01;18.40;99.90
14527;DHT22;7350;51.208;4.238;2023-03-31T08:18:28;18.40;99.90
14527;DHT22;7350;51.208;4.238;2023-03-31T08:20:55;18.40;99.90
14527;DHT22;7350;51.208;4.238;2023-03-31T08:23:22;18.40;99.90
14527;DHT22;7350;51.208;4.238;2023-03-31T08:25:51;18.40;99.90
14527;DHT22;7350;51.208;4.238;2023-03-31T08:28:18;18.40;99.90
14527;DHT22;7350;51.208;4.238;2023-03-31T08:30:45;18.40;99.90
14527;DHT22;7350;51.208;4.238;2023-03-31T08:33:12;18.40;99.90
14527;DHT22;7350;51.208;4.238;2023-03-31T08:35:39;18.40;99.90
14527;DHT22;7350;51.208;4.238;2023-03-31T08:38:06;18.40;99.90
14527;DHT22;7350;51.208;4.238;2023-03-31T08:40:33;18.40;99.90
14527;DHT22;7350;51.208;4.238;2023-03-31T08:43:05;18.30;99.90
14527;DHT22;7350;51.208;4.238;2023-03-31T08:45:36;18.30;99.90
14527;DHT22;7350;51.208;4.238;2023-03-31T08:48:09;18.40;99.90
14527;DHT22;7350;51.208;4.238;2023-03-31T08:50:45;18.40;99.90
14527;DHT22;7350;51.208;4.238;2023-03-31T08:53:19;18.40;99.90
14527;DHT22;7350;51.208;4.238;2023-03-31T08:55:49;18.40;99.90
14527;DHT22;7350;51.208;4.238;2023-03-31T08:58:31;18.40;99.90
14527;DHT22;7350;51.208;4.238;2023-03-31T09:01:05;18.40;99.90
14527;DHT22;7350;51.208;4.238;2023-03-31T09:03:39;18.40;99.90
14527;DHT22;7350;51.208;4.238;2023-03-31T09:06:13;18.40;99.90
14527;DHT22;7350;51.208;4.238;2023-03-31T09:08:42;18.40;99.90
14527;DHT22;7350;51.208;4.238;2023-03-31T09:11:13;18.40;99.90
14527;DHT22;7350;51.208;4.238;2023-03-31T09:16:42;18.40;99.90
14527;DHT22;7350;51.208;4.238;2023-03-31T09:19:17;18.40;99.90
14527;DHT22;7350;51.208;4.238;2023-03-31T09:21:47;18.40;99.90
14527;DHT22;7350;51.208;4.238;2023-03-31T09:24:18;18.40;99.90
14527;DHT22;7350;51.208;4.238;2023-03-31T09:26:49;18.40;99.90
14527;DHT22;7350;51.208;4.238;2023-03-31T09:29:21;18.40;99.90
14527;DHT22;7350;51.208;4.238;2023-03-31T09:31:50;18.40;99.90
14527;DHT22;7350;51.208;4.238;2023-03-31T09:34:23;18.40;99.90
14527;DHT22;7350;51.208;4.238;2023-03-31T09:36:50;18.40;99.90
14527;DHT22;7350;51.208;4.238;2023-03-31T09:39:17;18.40;99.90
14527;DHT22;7350;51.208;4.238;2023-03-31T09:41:46;18.40;99.90
14527;DHT22;7350;51.208;4.238;2023-03-31T09:44:29;18.40;99.90
14527;DHT22;7350;51.208;4.238;2023-03-31T09:46:59;18.40;99.90
14527;DHT22;7350;51.208;4.238;2023-03-31T09:49:33;18.30;99.90
14527;DHT22;7350;51.208;4.238;2023-03-31T09:52:03;18.30;99.90
14527;DHT22;7350;51.208;4.238;2023-03-31T09:54:36;18.30;99.90
14527;DHT22;7350;51.208;4.238;2023-03-31T09:57:13;18.30;99.90
14527;DHT22;7350;51.208;4.238;2023-03-31T09:59:40;18.30;99.90
14527;DHT22;7350;51.208;4.238;2023-03-31T10:02:28;18.30;99.90
14527;DHT22;7350;51.208;4.238;2023-03-31T10:04:59;18.30;99.90
14527;DHT22;7350;51.208;4.238;2023-03-31T10:07:27;18.30;99.90
14527;DHT22;7350;51.208;4.238;2023-03-31T10:09:54;18.30;99.90
14527;DHT22;7350;51.208;4.238;2023-03-31T10:12:24;18.30;99.90
14527;DHT22;7350;51.208;4.238;2023-03-31T10:14:52;18.30;99.90
14527;DHT22;7350;51.208;4.238;2023-03-31T10:17:23;18.30;99.90
14527;DHT22;7350;51.208;4.238;2023-03-31T10:19:55;18.40;99.90
14527;DHT22;7350;51.208;4.238;2023-03-31T10:22:29;18.40;99.90
14527;DHT22;7350;51.208;4.238;2023-03-31T10:25:09;18.30;99.90
14527;DHT22;7350;51.208;4.238;2023-03-31T10:27:39;18.30;99.90
14527;DHT22;7350;51.208;4.238;2023-03-31T10:30:11;18.30;99.90
14527;DHT22;7350;51.208;4.238;2023-03-31T10:32:40;18.30;99.90
14527;DHT22;7350;51.208;4.238;2023-03-31T10:35:20;18.30;99.90
14527;DHT22;7350;51.208;4.238;2023-03-31T10:37:48;18.30;99.90
14527;DHT22;7350;51.208;4.238;2023-03-31T10:40:20;18.30;99.90
14527;DHT22;7350;51.208;4.238;2023-03-31T10:43:02;18.30;99.90
14527;DHT22;7350;51.208;4.238;2023-03-31T10:45:36;18.30;99.90
14527;DHT22;7350;51.208;4.238;2023-03-31T10:48:09;18.30;99.90
14527;DHT22;7350;51.208;4.238;2023-03-31T10:50:43;18.30;99.90
14527;DHT22;7350;51.208;4.238;2023-03-31T10:53:12;18.30;99.90
14527;DHT22;7350;51.208;4.238;2023-03-31T10:55:47;18.30;99.90
14527;DHT22;7350;51.208;4.238;2023-03-31T10:58:29;18.20;99.90
14527;DHT22;7350;51.208;4.238;2023-03-31T11:01:06;18.20;99.90
14527;DHT22;7350;51.208;4.238;2023-03-31T11:06:48;18.30;99.90
14527;DHT22;7350;51.208;4.238;2023-03-31T11:09:31;18.20;99.90
14527;DHT22;7350;51.208;4.238;2023-03-31T11:12:05;18.20;99.90
14527;DHT22;7350;51.208;4.238;2023-03-31T11:14:42;18.20;99.90
14527;DHT22;7350;51.208;4.238;2023-03-31T11:17:22;18.20;99.90
14527;DHT22;7350;51.208;4.238;2023-03-31T11:20:01;18.10;99.90
14527;DHT22;7350;51.208;4.238;2023-03-31T11:22:43;18.10;99.90
14527;DHT22;7350;51.208;4.238;2023-03-31T11:25:26;18.10;99.90
14527;DHT22;7350;51.208;4.238;2023-03-31T11:28:18;18.10;99.90
14527;DHT22;7350;51.208;4.238;2023-03-31T11:30:50;18.10;99.90
14527;DHT22;7350;51.208;4.238;2023-03-31T11:33:50;18.10;99.90
14527;DHT22;7350;51.208;4.238;2023-03-31T11:36:31;18.10;99.90
14527;DHT22;7350;51.208;4.238;2023-03-31T11:39:14;18.10;99.90
14527;DHT22;7350;51.208;4.238;2023-03-31T11:41:47;18.10;99.90
14527;DHT22;7350;51.208;4.238;2023-03-31T11:44:18;18.10;99.90
14527;DHT22;7350;51.208;4.238;2023-03-31T11:46:49;18.10;99.90
14527;DHT22;7350;51.208;4.238;2023-03-31T11:49:21;18.20;99.90
14527;DHT22;7350;51.208;4.238;2023-03-31T11:51:55;18.10;99.90
14527;DHT22;7350;51.208;4.238;2023-03-31T11:54:27;18.10;99.90
14527;DHT22;7350;51.208;4.238;2023-03-31T11:56:57;18.20;99.90
14527;DHT22;7350;51.208;4.238;2023-03-31T11:59:26;18.20;99.90
14527;DHT22;7350;51.208;4.238;2023-03-31T12:02:03;18.10;99.90
14527;DHT22;7350;51.208;4.238;2023-03-31T12:04:37;18.20;99.90
14527;DHT22;7350;51.208;4.238;2023-03-31T12:07:19;18.20;99.90
14527;DHT22;7350;51.208;4.238;2023-03-31T12:09:53;18.20;99.90
14527;DHT22;7350;51.208;4.238;2023-03-31T12:12:23;18.20;99.90
14527;DHT22;7350;51.208;4.238;2023-03-31T12:14:56;18.20;99.90
14527;DHT22;7350;51.208;4.238;2023-03-31T12:17:26;18.20;99.90
14527;DHT22;7350;51.208;4.238;2023-03-31T12:19:56;18.20;99.90
14527;DHT22;7350;51.208;4.238;2023-03-31T12:22:28;18.20;99.90
14527;DHT22;7350;51.208;4.238;2023-03-31T12:24:58;18.20;99.90
14527;DHT22;7350;51.208;4.238;2023-03-31T12:27:28;18.20;99.90
14527;DHT22;7350;51.208;4.238;2023-03-31T12:29:57;18.10;99.90
14527;DHT22;7350;51.208;4.238;2023-03-31T12:32:29;18.00;99.90
14527;DHT22;7350;51.208;4.238;2023-03-31T12:34:59;18.10;99.90
14527;DHT22;7350;51.208;4.238;2023-03-31T12:37:59;18.10;99.90
14527;DHT22;7350;51.208;4.238;2023-03-31T12:40:40;18.20;99.90
14527;DHT22;7350;51.208;4.238;2023-03-31T12:46:28;18.10;99.90
14527;DHT22;7350;51.208;4.238;2023-03-31T12:49:13;18.10;99.90
14527;DHT22;7350;51.208;4.238;2023-03-31T12:51:58;18.00;99.90
14527;DHT22;7350;51.208;4.238;2023-03-31T12:54:51;18.00;99.90
14527;DHT22;7350;51.208;4.238;2023-03-31T12:57:25;18.00;99.90
14527;DHT22;7350;51.208;4.238;2023-03-31T13:00:26;18.00;99.90
14527;DHT22;7350;51.208;4.238;2023-03-31T13:05:54;18.00;99.90
14527;DHT22;7350;51.208;4.238;2023-03-31T13:08:55;18.10;99.90
14527;DHT22;7350;51.208;4.238;2023-03-31T13:11:36;18.00;99.90
14527;DHT22;7350;51.208;4.238;2023-03-31T13:14:05;18.00;99.90
14527;DHT22;7350;51.208;4.238;2023-03-31T13:16:34;18.00;99.90
14527;DHT22;7350;51.208;4.238;2023-03-31T13:19:01;18.00;99.90
14527;DHT22;7350;51.208;4.238;2023-03-31T13:21:28;18.00;99.90
14527;DHT22;7350;51.208;4.238;2023-03-31T13:23:59;18.00;99.90
14527;DHT22;7350;51.208;4.238;2023-03-31T13:26:41;18.00;99.90
14527;DHT22;7350;51.208;4.238;2023-03-31T13:29:24;18.10;99.90
14527;DHT22;7350;51.208;4.238;2023-03-31T13:32:18;18.10;99.90
14527;DHT22;7350;51.208;4.238;2023-03-31T13:34:50;18.10;99.90
14527;DHT22;7350;51.208;4.238;2023-03-31T13:40:59;18.20;99.90
14527;DHT22;7350;51.208;4.238;2023-03-31T13:43:47;18.10;99.90
14527;DHT22;7350;51.208;4.238;2023-03-31T13:49:43;18.10;99.90
14527;DHT22;7350;51.208;4.238;2023-03-31T13:52:13;18.10;99.90
14527;DHT22;7350;51.208;4.238;2023-03-31T13:58:21;18.00;99.90
14527;DHT22;7350;51.208;4.238;2023-03-31T14:01:05;18.00;99.90
14527;DHT22;7350;51.208;4.238;2023-03-31T14:03:51;18.00;99.90
14527;DHT22;7350;51.208;4.238;2023-03-31T14:06:24;18.00;99.90
14527;DHT22;7350;51.208;4.238;2023-03-31T14:08:54;18.00;99.90
14527;DHT22;7350;51.208;4.238;2023-03-31T14:11:23;18.00;99.90
14527;DHT22;7350;51.208;4.238;2023-03-31T14:14:02;18.00;99.90
14527;DHT22;7350;51.208;4.238;2023-03-31T14:16:32;18.00;99.90
14527;DHT22;7350;51.208;4.238;2023-03-31T14:19:15;18.00;99.90
14527;DHT22;7350;51.208;4.238;2023-03-31T14:21:50;18.00;99.90
14527;DHT22;7350;51.208;4.238;2023-03-31T14:24:26;18.00;99.90
14527;DHT22;7350;51.208;4.238;2023-03-31T14:27:03;18.00;99.90
14527;DHT22;7350;51.208;4.238;2023-03-31T14:29:36;18.00;99.90
14527;DHT22;7350;51.208;4.238;2023-03-31T14:32:15;18.00;99.90
14527;DHT22;7350;51.208;4.238;2023-03-31T14:34:55;18.10;99.90
14527;DHT22;7350;51.208;4.238;2023-03-31T14:37:27;18.10;99.90
14527;DHT22;7350;51.208;4.238;2023-03-31T14:39:54;18.00;99.90
14527;DHT22;7350;51.208;4.238;2023-03-31T14:42:25;18.00;99.90
14527;DHT22;7350;51.208;4.238;2023-03-31T14:44:55;18.10;99.90
14527;DHT22;7350;51.208;4.238;2023-03-31T14:47:25;18.10;99.90
14527;DHT22;7350;51.208;4.238;2023-03-31T14:50:00;18.10;99.90
14527;DHT22;7350;51.208;4.238;2023-03-31T14:52:30;18.10;99.90
14527;DHT22;7350;51.208;4.238;2023-03-31T14:54:58;18.00;99.90
14527;DHT22;7350;51.208;4.238;2023-03-31T14:57:29;18.00;99.90
14527;DHT22;7350;51.208;4.238;2023-03-31T14:59:57;18.00;99.90
14527;DHT22;7350;51.208;4.238;2023-03-31T15:02:31;18.00;99.90
14527;DHT22;7350;51.208;4.238;2023-03-31T15:05:02;18.00;99.90
14527;DHT22;7350;51.208;4.238;2023-03-31T15:07:30;18.00;99.90
14527;DHT22;7350;51.208;4.238;2023-03-31T15:09:57;18.00;99.90
14527;DHT22;7350;51.208;4.238;2023-03-31T15:12:24;18.00;99.90
14527;DHT22;7350;51.208;4.238;2023-03-31T15:14:55;18.10;99.90
14527;DHT22;7350;51.208;4.238;2023-03-31T15:17:25;18.40;99.90
14527;DHT22;7350;51.208;4.238;2023-03-31T15:19:56;18.70;99.90
14527;DHT22;7350;51.208;4.238;2023-03-31T15:22:25;18.70;99.90
14527;DHT22;7350;51.208;4.238;2023-03-31T15:24:53;19.00;99.90
14527;DHT22;7350;51.208;4.238;2023-03-31T15:27:32;19.00;99.90
14527;DHT22;7350;51.208;4.238;2023-03-31T15:30:03;19.10;99.90
14527;DHT22;7350;51.208;4.238;2023-03-31T15:32:34;19.30;99.90
14527;DHT22;7350;51.208;4.238;2023-03-31T15:35:04;19.40;99.90
14527;DHT22;7350;51.208;4.238;2023-03-31T15:37:37;19.50;99.90
14527;DHT22;7350;51.208;4.238;2023-03-31T15:40:17;19.60;99.90
14527;DHT22;7350;51.208;4.238;2023-03-31T15:42:46;19.50;99.90
14527;DHT22;7350;51.208;4.238;2023-03-31T15:45:35;19.60;99.90
14527;DHT22;7350;51.208;4.238;2023-03-31T15:48:04;19.50;99.90
14527;DHT22;7350;51.208;4.238;2023-03-31T15:50:32;19.60;99.90
14527;DHT22;7350;51.208;4.238;2023-03-31T15:53:00;19.80;99.90
14527;DHT22;7350;51.208;4.238;2023-03-31T15:55:38;19.70;99.90
14527;DHT22;7350;51.208;4.238;2023-03-31T15:58:05;19.80;99.90
14527;DHT22;7350;51.208;4.238;2023-03-31T16:00:43;19.90;99.90
14527;DHT22;7350;51.208;4.238;2023-03-31T16:03:17;20.00;99.90
14527;DHT22;7350;51.208;4.238;2023-03-31T16:05:50;20.10;99.90
14527;DHT22;7350;51.208;4.238;2023-03-31T16:08:23;20.10;99.90
14527;DHT22;7350;51.208;4.238;2023-03-31T16:10:56;20.00;99.90
14527;DHT22;7350;51.208;4.238;2023-03-31T16:13:25;20.00;99.90
14527;DHT22;7350;51.208;4.238;2023-03-31T16:15:53;20.20;99.90
14527;DHT22;7350;51.208;4.238;2023-03-31T16:18:25;20.30;99.90
14527;DHT22;7350;51.208;4.238;2023-03-31T16:20:56;20.40;99.90
14527;DHT22;7350;51.208;4.238;2023-03-31T16:23:25;20.40;99.90
14527;DHT22;7350;51.208;4.238;2023-03-31T16:25:54;20.50;99.90
14527;DHT22;7350;51.208;4.238;2023-03-31T16:28:22;20.50;99.90
14527;DHT22;7350;51.208;4.238;2023-03-31T16:30:50;20.80;99.90
14527;DHT22;7350;51.208;4.238;2023-03-31T16:33:19;20.90;99.90
14527;DHT22;7350;51.208;4.238;2023-03-31T16:35:49;20.90;99.90
14527;DHT22;7350;51.208;4.238;2023-03-31T16:38:20;21.00;99.90
14527;DHT22;7350;51.208;4.238;2023-03-31T16:40:48;20.90;99.90
14527;DHT22;7350;51.208;4.238;2023-03-31T16:43:17;20.80;99.90
14527;DHT22;7350;51.208;4.238;2023-03-31T16:45:46;20.80;99.90
14527;DHT22;7350;51.208;4.238;2023-03-31T16:48:13;20.80;99.90